Time;durP1;ratioP1;P1;durP2;ratioP2;P2;SDS_P1;SDS_P2;PMS_P1;PMS_P2;Temp;Humidity;BMP_temperature;BMP_pressure;BME280_temperature;BME280_humidity;BME280_pressure;Samples;Min_cycle;Max_cycle;Signal;HPM_P1;HPM_P2
2022/08/13 00:01:40;;;;;;;1.08;0.60;;;17.10;99.90;;;;;;5009383;28;20042;-75
2022/08/13 00:04:10;;;;;;;0.82;0.55;;;17.50;99.90;;;;;;5009270;28;20066;-76
2022/08/13 00:09:14;;;;;;;1.40;0.70;;;17.60;99.90;;;;;;5014154;28;20034;-75
2022/08/13 00:14:35;;;;;;;0.55;0.20;;;17.30;99.90;;;;;;5008443;28;20503;-75
2022/08/13 00:17:04;;;;;;;0.60;0.40;;;17.70;99.90;;;;;;5010739;28;20025;-76
2022/08/13 00:19:32;;;;;;;0.95;0.57;;;18.50;99.90;;;;;;5008591;28;20025;-75
2022/08/13 00:21:59;;;;;;;0.55;0.40;;;19.20;99.90;;;;;;5001796;28;20033;-74
2022/08/13 00:24:29;;;;;;;0.40;0.20;;;19.30;99.90;;;;;;5002684;28;20030;-76
2022/08/13 00:26:59;;;;;;;0.75;0.52;;;19.60;99.90;;;;;;5023515;28;20065;-76
2022/08/13 00:29:28;;;;;;;1.00;0.30;;;19.70;99.50;;;;;;5015939;28;20026;-76
2022/08/13 00:31:56;;;;;;;1.10;0.30;;;19.60;99.00;;;;;;5013611;28;20388;-76
2022/08/13 00:34:23;;;;;;;0.68;0.22;;;18.90;99.70;;;;;;5027335;28;20041;-76
2022/08/13 00:36:51;;;;;;;1.08;0.50;;;19.40;99.80;;;;;;5002743;28;20030;-77
2022/08/13 00:39:18;;;;;;;0.30;0.20;;;20.10;99.20;;;;;;5003626;28;20036;-77
2022/08/13 00:41:46;;;;;;;0.70;0.30;;;20.50;98.60;;;;;;5009784;28;20116;-76
2022/08/13 00:44:17;;;;;;;0.95;0.50;;;21.60;97.80;;;;;;5012483;28;20504;-74
2022/08/13 00:46:45;;;;;;;0.30;0.20;;;22.40;96.30;;;;;;5010689;28;20025;-73
2022/08/13 00:49:13;;;;;;;0.20;0.10;;;23.00;93.80;;;;;;5008572;28;20123;-74
2022/08/13 00:51:42;;;;;;;0.60;0.35;;;23.30;93.20;;;;;;5010085;28;20049;-77
2022/08/13 00:54:13;;;;;;;0.20;0.20;;;23.70;93.00;;;;;;5011050;28;20030;-76
2022/08/13 00:56:41;;;;;;;0.22;0.20;;;23.90;93.70;;;;;;4993960;28;20031;-76
2022/08/13 00:59:12;;;;;;;0.50;0.30;;;24.10;92.90;;;;;;4991158;28;20030;-76
2022/08/13 01:01:42;;;;;;;0.40;0.30;;;24.40;93.70;;;;;;5007491;28;20030;-76
2022/08/13 01:04:11;;;;;;;0.30;0.13;;;25.00;93.30;;;;;;4997628;28;20126;-76
2022/08/13 01:06:38;;;;;;;0.40;0.20;;;25.00;91.40;;;;;;5010626;28;20108;-76
2022/08/13 01:09:08;;;;;;;0.20;0.10;;;24.70;91.30;;;;;;5018608;28;20092;-76
2022/08/13 01:11:38;;;;;;;0.30;0.20;;;24.20;91.80;;;;;;5006909;28;20045;-78
2022/08/13 01:14:07;;;;;;;0.10;0.10;;;24.10;91.30;;;;;;5008272;28;20026;-75
2022/08/13 01:16:36;;;;;;;1.25;0.20;;;23.00;92.80;;;;;;5009688;28;20133;-74
2022/08/13 01:19:08;;;;;;;0.20;0.10;;;22.70;93.00;;;;;;5008629;28;20056;-76
2022/08/13 01:21:41;;;;;;;0.30;0.10;;;23.20;93.30;;;;;;5023830;28;20025;-76
2022/08/13 01:24:11;;;;;;;0.40;0.08;;;23.20;92.70;;;;;;5013709;28;20025;-76
2022/08/13 01:26:40;;;;;;;0.10;0.10;;;23.00;92.00;;;;;;4999766;28;20190;-77
2022/08/13 01:29:10;;;;;;;0.63;0.05;;;22.20;91.60;;;;;;4999205;28;20118;-76
2022/08/13 01:31:40;;;;;;;0.20;0.10;;;20.50;92.90;;;;;;5007715;28;20038;-75
2022/08/13 01:34:08;;;;;;;0.20;0.10;;;19.70;94.30;;;;;;5000230;28;20413;-78
2022/08/13 01:36:37;;;;;;;0.30;0.10;;;19.60;94.60;;;;;;5008356;28;20056;-76
2022/08/13 01:39:05;;;;;;;0.28;0.13;;;19.80;95.00;;;;;;5010703;28;20041;-76
2022/08/13 01:41:34;;;;;;;0.03;0.00;;;20.90;93.60;;;;;;5009644;28;20037;-78
2022/08/13 01:44:06;;;;;;;1.55;0.10;;;21.30;93.10;;;;;;5009636;28;20014;-77
2022/08/13 01:52:10;;;;;;;0.28;0.00;;;21.40;93.30;;;;;;5011484;28;20624;-77
2022/08/13 01:54:39;;;;;;;0.00;0.00;;;22.80;91.60;;;;;;5009254;28;20084;-78
2022/08/13 01:57:09;;;;;;;0.28;0.10;;;22.00;90.90;;;;;;5010557;28;20390;-76
2022/08/13 01:59:38;;;;;;;0.10;0.00;;;21.50;92.30;;;;;;5002343;28;20042;-76
2022/08/13 02:02:08;;;;;;;0.05;0.05;;;21.00;92.70;;;;;;5007702;28;20022;-77
2022/08/13 02:04:35;;;;;;;0.15;0.00;;;20.60;93.20;;;;;;5001306;28;20044;-76
2022/08/13 02:07:04;;;;;;;0.35;0.10;;;20.20;92.40;;;;;;5010126;28;20018;-76
2022/08/13 02:09:32;;;;;;;0.10;0.00;;;20.00;93.30;;;;;;5012951;28;20345;-76
2022/08/13 02:11:59;;;;;;;0.17;0.10;;;19.90;92.90;;;;;;5012632;28;20037;-77
2022/08/13 02:14:29;;;;;;;0.90;0.20;;;19.80;92.10;;;;;;5025708;28;20049;-77
2022/08/13 02:16:56;;;;;;;0.30;0.00;;;19.60;92.60;;;;;;5012935;28;20224;-77
2022/08/13 02:19:24;;;;;;;0.10;0.10;;;19.60;93.00;;;;;;5013588;28;20029;-76
2022/08/13 02:21:51;;;;;;;0.32;0.10;;;19.40;92.80;;;;;;5010330;28;20424;-76
2022/08/13 02:24:18;;;;;;;0.50;0.20;;;19.30;92.90;;;;;;5010926;28;20068;-73
2022/08/13 02:26:46;;;;;;;0.43;0.15;;;19.20;93.90;;;;;;5011758;28;20373;-76
2022/08/13 02:29:14;;;;;;;0.25;0.10;;;19.10;95.80;;;;;;4994524;28;20452;-74
2022/08/13 02:31:42;;;;;;;0.20;0.10;;;19.70;96.80;;;;;;5002584;28;20026;-77
2022/08/13 02:34:13;;;;;;;0.10;0.00;;;20.90;96.10;;;;;;4994506;28;20436;-77
2022/08/13 02:36:41;;;;;;;0.00;0.00;;;22.10;94.90;;;;;;5005062;28;20130;-76
2022/08/13 02:39:10;;;;;;;0.25;0.00;;;22.10;93.50;;;;;;5003053;28;20025;-75
2022/08/13 02:41:43;;;;;;;0.10;0.10;;;21.30;93.70;;;;;;4997690;28;20382;-75
2022/08/13 02:44:16;;;;;;;0.00;0.00;;;20.60;93.30;;;;;;5003854;28;20045;-77
2022/08/13 02:46:50;;;;;;;0.00;0.00;;;20.10;94.50;;;;;;5013154;28;20100;-77
2022/08/13 02:49:21;;;;;;;0.22;0.05;;;19.80;94.80;;;;;;5012052;28;20121;-76
2022/08/13 02:51:49;;;;;;;0.00;0.00;;;20.40;95.10;;;;;;5012037;28;20054;-75
2022/08/13 02:54:18;;;;;;;1.15;0.50;;;21.00;94.30;;;;;;5002913;28;20505;-75
2022/08/13 02:56:46;;;;;;;0.13;0.10;;;21.30;92.30;;;;;;4998771;28;20041;-75
2022/08/13 02:59:13;;;;;;;0.00;0.00;;;21.10;92.80;;;;;;4996941;28;20026;-75
2022/08/13 03:01:41;;;;;;;0.20;0.10;;;20.70;92.70;;;;;;5002567;28;20030;-76
2022/08/13 03:04:09;;;;;;;0.05;0.00;;;20.40;92.80;;;;;;4999078;28;20138;-76
2022/08/13 03:06:37;;;;;;;0.25;0.00;;;20.30;93.40;;;;;;4998689;28;20034;-76
2022/08/13 03:09:05;;;;;;;0.13;0.10;;;20.70;93.60;;;;;;5002013;28;20132;-77
2022/08/13 03:11:36;;;;;;;0.17;0.10;;;21.80;93.00;;;;;;5000082;28;20510;-77
2022/08/13 03:14:08;;;;;;;0.28;0.10;;;22.60;91.70;;;;;;5005869;28;20658;-78
2022/08/13 03:16:36;;;;;;;0.25;0.10;;;23.30;91.30;;;;;;5004070;28;20038;-78
2022/08/13 03:19:03;;;;;;;0.00;0.00;;;23.70;91.10;;;;;;5011974;28;20115;-78
2022/08/13 03:21:41;;;;;;;0.00;0.00;;;23.90;87.70;;;;;;5007304;28;20103;-78
2022/08/13 03:24:15;;;;;;;0.00;0.00;;;23.90;87.30;;;;;;5013426;28;20032;-78
2022/08/13 03:26:44;;;;;;;0.80;0.08;;;23.90;89.30;;;;;;5008904;28;20026;-78
2022/08/13 03:29:12;;;;;;;0.20;0.00;;;23.70;85.20;;;;;;5006960;28;20090;-78
2022/08/13 03:31:39;;;;;;;0.10;0.00;;;23.30;84.10;;;;;;5015814;28;20030;-78
2022/08/13 03:34:07;;;;;;;0.32;0.00;;;22.70;85.60;;;;;;5015190;28;20374;-79
2022/08/13 03:36:36;;;;;;;0.10;0.10;;;22.80;88.00;;;;;;5011735;28;20512;-81
2022/08/13 03:39:05;;;;;;;0.00;0.00;;;23.00;88.10;;;;;;5011705;28;20029;-84
2022/08/13 03:41:32;;;;;;;0.20;0.10;;;22.90;86.20;;;;;;5006364;28;20038;-82
2022/08/13 03:44:02;;;;;;;0.00;0.00;;;22.40;84.80;;;;;;5021304;28;20026;-89
2022/08/13 03:46:30;;;;;;;0.00;0.00;;;21.90;85.70;;;;;;5014637;28;20033;-82
2022/08/13 03:48:57;;;;;;;0.00;0.00;;;21.40;86.00;;;;;;5022220;28;20037;-79
2022/08/13 03:51:24;;;;;;;0.00;0.00;;;21.40;90.50;;;;;;5003828;28;20382;-79
2022/08/13 03:53:59;;;;;;;0.50;0.10;;;21.20;87.00;;;;;;5009940;28;20117;-77
2022/08/13 03:56:27;;;;;;;0.00;0.00;;;21.20;86.60;;;;;;5011287;28;20473;-78
2022/08/13 03:58:54;;;;;;;0.10;0.05;;;21.10;86.10;;;;;;5009593;28;20040;-79
2022/08/13 04:01:21;;;;;;;0.00;0.00;;;21.00;87.20;;;;;;5010578;28;20022;-80
2022/08/13 04:03:49;;;;;;;0.10;0.00;;;20.90;86.20;;;;;;5028507;28;20160;-78
2022/08/13 04:06:20;;;;;;;0.68;0.00;;;20.90;87.80;;;;;;5031798;28;20104;-78
2022/08/13 04:08:49;;;;;;;0.15;0.05;;;21.20;85.80;;;;;;5015504;28;20040;-78
2022/08/13 04:11:19;;;;;;;0.10;0.00;;;21.50;85.70;;;;;;5011115;28;20161;-80
2022/08/13 04:13:47;;;;;;;2.35;0.43;;;21.60;84.50;;;;;;5005493;28;20053;-79
2022/08/13 04:16:21;;;;;;;0.20;0.10;;;21.80;84.60;;;;;;5003016;28;20042;-82
2022/08/13 04:18:50;;;;;;;0.10;0.03;;;21.60;83.90;;;;;;4997666;28;20102;-80
2022/08/13 04:21:19;;;;;;;0.55;0.00;;;21.30;83.50;;;;;;5004991;28;20053;-80
2022/08/13 04:23:46;;;;;;;0.20;0.10;;;21.20;84.10;;;;;;5014041;28;20388;-83
2022/08/13 04:26:17;;;;;;;0.20;0.10;;;21.30;83.40;;;;;;5013619;28;20449;-81
2022/08/13 04:28:47;;;;;;;1.17;0.10;;;21.30;84.30;;;;;;5024255;28;20045;-85
2022/08/13 04:31:15;;;;;;;0.28;0.10;;;21.30;84.20;;;;;;5009311;28;20033;-82
2022/08/13 04:33:42;;;;;;;0.38;0.28;;;21.00;83.10;;;;;;5006333;28;20026;-83
2022/08/13 04:36:11;;;;;;;0.10;0.03;;;20.90;84.20;;;;;;4999686;28;20041;-86
2022/08/13 04:38:38;;;;;;;0.10;0.10;;;20.90;84.70;;;;;;4991518;28;20422;-87
2022/08/13 04:41:06;;;;;;;0.47;0.10;;;20.90;84.00;;;;;;5006728;28;20499;-80
2022/08/13 04:43:33;;;;;;;1.27;0.10;;;21.00;83.80;;;;;;5008677;28;20022;-81
2022/08/13 04:46:01;;;;;;;0.43;0.10;;;20.80;83.20;;;;;;5010604;28;20109;-75
2022/08/13 04:48:33;;;;;;;0.63;0.13;;;20.50;81.90;;;;;;5012029;28;20117;-85
2022/08/13 04:51:01;;;;;;;1.05;0.17;;;20.10;83.60;;;;;;5000005;28;20050;-84
2022/08/13 04:53:31;;;;;;;0.95;0.10;;;19.70;84.10;;;;;;5020452;28;20396;-81
2022/08/13 04:56:01;;;;;;;0.90;0.00;;;19.50;85.00;;;;;;5001562;28;20030;-78
2022/08/13 04:58:35;;;;;;;0.10;0.10;;;19.30;84.20;;;;;;5012252;28;20030;-75
2022/08/13 05:01:06;;;;;;;0.30;0.30;;;19.20;85.50;;;;;;5007360;28;20064;-79
2022/08/13 05:03:34;;;;;;;1.70;0.10;;;19.10;85.70;;;;;;5031631;28;20026;-76
2022/08/13 05:06:01;;;;;;;0.47;0.20;;;19.20;85.90;;;;;;5020649;28;20063;-80
2022/08/13 05:08:32;;;;;;;0.40;0.15;;;19.10;85.60;;;;;;5024388;28;20029;-78
2022/08/13 05:11:00;;;;;;;0.90;0.03;;;18.90;85.50;;;;;;5009350;28;20384;-78
2022/08/13 05:13:34;;;;;;;0.03;0.03;;;18.70;85.80;;;;;;5022066;28;20029;-77
2022/08/13 05:16:04;;;;;;;0.63;0.10;;;18.60;85.70;;;;;;5005710;28;20042;-80
2022/08/13 05:18:34;;;;;;;0.20;0.10;;;18.70;87.00;;;;;;5009786;28;20037;-76
2022/08/13 05:21:03;;;;;;;0.45;0.08;;;18.80;87.30;;;;;;5008969;28;20056;-78
2022/08/13 05:23:36;;;;;;;0.30;0.10;;;18.90;87.60;;;;;;5007241;28;20193;-78
2022/08/13 05:26:04;;;;;;;1.67;0.10;;;18.80;87.00;;;;;;5004837;28;20061;-79
2022/08/13 05:28:32;;;;;;;0.82;0.43;;;18.80;87.60;;;;;;5008708;28;20048;-79
2022/08/13 05:31:00;;;;;;;0.43;0.10;;;18.70;88.80;;;;;;5002241;28;20208;-79
2022/08/13 05:33:35;;;;;;;1.52;0.20;;;18.50;88.50;;;;;;5009202;28;20121;-78
2022/08/13 05:36:05;;;;;;;0.10;0.10;;;18.40;89.20;;;;;;5021070;28;20034;-77
2022/08/13 05:38:43;;;;;;;1.65;0.10;;;18.20;89.90;;;;;;5015146;28;20080;-75
2022/08/13 05:41:11;;;;;;;1.17;0.10;;;18.10;90.10;;;;;;5003739;28;20034;-75
2022/08/13 05:43:38;;;;;;;0.63;0.20;;;18.10;90.40;;;;;;5007691;28;20088;-78
2022/08/13 05:46:09;;;;;;;0.00;0.00;;;18.10;90.80;;;;;;5003576;28;20137;-77
2022/08/13 05:48:39;;;;;;;1.20;0.20;;;18.30;90.60;;;;;;5031041;28;20026;-79
2022/08/13 05:51:10;;;;;;;0.85;0.22;;;18.50;90.30;;;;;;5009698;28;20448;-78
2022/08/13 05:53:38;;;;;;;0.43;0.10;;;18.70;90.40;;;;;;5009501;28;20029;-76
2022/08/13 05:56:08;;;;;;;2.50;0.25;;;18.70;89.90;;;;;;5017826;28;20026;-74
2022/08/13 05:58:36;;;;;;;0.38;0.10;;;18.50;89.50;;;;;;5015105;28;20022;-73
2022/08/13 06:03:48;;;;;;;0.75;0.10;;;18.00;86.00;;;;;;5026457;28;20072;-74
2022/08/13 06:06:22;;;;;;;2.35;0.15;;;17.80;84.90;;;;;;5008914;28;20118;-74
2022/08/13 06:08:50;;;;;;;0.25;0.00;;;17.70;85.80;;;;;;5009148;28;20029;-74
2022/08/13 06:11:19;;;;;;;0.50;0.05;;;17.70;86.20;;;;;;5006506;28;20034;-75
2022/08/13 06:13:49;;;;;;;0.63;0.10;;;17.90;85.80;;;;;;5021487;28;20033;-75
2022/08/13 06:16:20;;;;;;;0.80;0.10;;;18.10;85.90;;;;;;5002774;28;20034;-75
2022/08/13 06:18:49;;;;;;;0.60;0.20;;;18.30;87.70;;;;;;4995247;28;20030;-75
2022/08/13 06:21:19;;;;;;;0.90;0.10;;;18.30;85.70;;;;;;5010625;28;20025;-75
2022/08/13 06:23:48;;;;;;;1.13;0.10;;;18.20;85.90;;;;;;5013827;28;20030;-74
2022/08/13 06:26:18;;;;;;;0.35;0.20;;;17.90;86.80;;;;;;5013529;28;20511;-74
2022/08/13 06:28:46;;;;;;;1.70;0.10;;;17.80;87.30;;;;;;5007339;28;20030;-76
2022/08/13 06:31:25;;;;;;;0.10;0.10;;;17.70;87.30;;;;;;5011745;28;20025;-76
2022/08/13 06:33:56;;;;;;;0.20;0.10;;;17.60;87.90;;;;;;5014303;28;20018;-75
2022/08/13 06:36:29;;;;;;;0.15;0.10;;;17.50;88.60;;;;;;5011247;28;20030;-74
2022/08/13 06:39:01;;;;;;;0.52;0.20;;;17.40;89.30;;;;;;4999940;28;20030;-75
2022/08/13 06:41:31;;;;;;;1.67;0.85;;;17.30;89.20;;;;;;5011683;28;20121;-74
2022/08/13 06:43:59;;;;;;;0.35;0.22;;;17.20;89.60;;;;;;5013832;28;20109;-74
2022/08/13 06:46:28;;;;;;;0.30;0.10;;;17.20;89.70;;;;;;5012090;28;20566;-75
2022/08/13 06:48:58;;;;;;;0.43;0.10;;;17.10;89.80;;;;;;5011161;28;20454;-74
2022/08/13 06:51:25;;;;;;;2.20;0.10;;;17.00;89.30;;;;;;5012427;28;20053;-73
2022/08/13 06:53:54;;;;;;;0.30;0.10;;;17.00;89.50;;;;;;4999115;28;20080;-75
2022/08/13 06:56:26;;;;;;;0.25;0.10;;;16.90;90.00;;;;;;5000869;28;20042;-74
2022/08/13 06:58:58;;;;;;;1.20;0.43;;;16.90;90.00;;;;;;5005990;28;20844;-74
2022/08/13 07:01:27;;;;;;;0.95;0.20;;;16.80;90.30;;;;;;5009659;28;20045;-74
2022/08/13 07:03:55;;;;;;;0.45;0.10;;;16.80;90.50;;;;;;4997599;28;20030;-73
2022/08/13 07:06:28;;;;;;;0.55;0.10;;;16.70;90.30;;;;;;5010053;28;20488;-75
2022/08/13 07:08:57;;;;;;;0.28;0.10;;;16.60;90.10;;;;;;5017117;28;20030;-76
2022/08/13 07:11:27;;;;;;;0.47;0.00;;;16.40;90.30;;;;;;5009341;28;20120;-75
2022/08/13 07:14:01;;;;;;;0.28;0.10;;;16.30;90.60;;;;;;5012243;28;20136;-74
2022/08/13 07:16:34;;;;;;;0.63;0.25;;;16.20;90.90;;;;;;5000398;28;20069;-75
2022/08/13 07:19:02;;;;;;;0.80;0.10;;;16.00;91.00;;;;;;5003216;28;20101;-75
2022/08/13 07:21:31;;;;;;;2.05;0.20;;;15.90;90.50;;;;;;5012687;28;20076;-74
2022/08/13 07:24:02;;;;;;;0.80;0.10;;;15.80;90.40;;;;;;4995295;28;20037;-75
2022/08/13 07:26:33;;;;;;;0.63;0.10;;;15.80;90.40;;;;;;5011095;28;20388;-75
2022/08/13 07:29:03;;;;;;;1.00;0.10;;;15.70;90.70;;;;;;5007751;28;20033;-75
2022/08/13 07:31:34;;;;;;;0.13;0.10;;;15.60;90.90;;;;;;5009746;28;20033;-75
2022/08/13 07:34:05;;;;;;;0.30;0.10;;;15.50;90.70;;;;;;4993485;28;20173;-75
2022/08/13 07:36:36;;;;;;;0.10;0.10;;;15.40;90.90;;;;;;5011677;28;20037;-75
2022/08/13 07:39:12;;;;;;;0.85;0.47;;;15.40;91.10;;;;;;5026762;28;20408;-76
2022/08/13 07:41:43;;;;;;;;;;;15.30;91.30;;;;;;5013101;28;20045;-76
2022/08/13 07:44:17;;;;;;;1.90;0.40;;;15.20;91.40;;;;;;5012813;28;20348;-75
2022/08/13 07:46:45;;;;;;;1.02;0.70;;;15.20;91.50;;;;;;5011820;28;20678;-75
2022/08/13 07:49:13;;;;;;;1.35;1.10;;;15.10;91.60;;;;;;5011248;28;20037;-75
2022/08/13 07:51:42;;;;;;;8.07;5.18;;;15.00;91.70;;;;;;5011966;28;20149;-76
2022/08/13 07:54:11;;;;;;;12.68;6.00;;;15.00;91.70;;;;;;5012307;28;20076;-74
2022/08/13 07:56:40;;;;;;;16.92;9.25;;;15.00;92.00;;;;;;5000030;28;20034;-75
2022/08/13 07:59:10;;;;;;;6.93;3.22;;;15.00;92.30;;;;;;4996936;28;20389;-74
2022/08/13 08:01:50;;;;;;;14.07;7.22;;;15.00;92.10;;;;;;5010915;28;20132;-74
2022/08/13 08:04:19;;;;;;;7.32;2.10;;;15.00;92.30;;;;;;5010631;28;20030;-75
2022/08/13 08:06:48;;;;;;;3.95;2.42;;;15.00;92.40;;;;;;5011195;28;20257;-74
2022/08/13 08:09:21;;;;;;;3.95;2.58;;;14.90;92.30;;;;;;5017205;28;20413;-74
2022/08/13 08:14:37;;;;;;;5.22;2.20;;;14.80;92.20;;;;;;5011157;28;20053;-76
2022/08/13 08:17:06;;;;;;;4.97;1.90;;;14.70;92.40;;;;;;5012628;28;20018;-75
2022/08/13 08:19:33;;;;;;;6.40;3.22;;;14.60;92.50;;;;;;5010621;28;20070;-75
2022/08/13 08:22:02;;;;;;;5.93;2.60;;;14.50;92.90;;;;;;5012811;28;20044;-76
2022/08/13 08:24:32;;;;;;;4.55;1.70;;;14.40;93.00;;;;;;5010462;28;20062;-74
2022/08/13 08:27:10;;;;;;;1.80;0.80;;;14.20;93.10;;;;;;5011182;28;20471;-75
2022/08/13 08:29:40;;;;;;;0.93;0.45;;;14.10;93.40;;;;;;5009699;28;20041;-75
2022/08/13 08:32:08;;;;;;;2.00;0.73;;;14.00;93.60;;;;;;5012293;28;20156;-75
2022/08/13 08:34:40;;;;;;;2.03;0.80;;;13.90;94.00;;;;;;5009237;28;20098;-75
2022/08/13 08:37:09;;;;;;;1.38;1.05;;;13.70;94.10;;;;;;5011669;28;20025;-75
2022/08/13 08:42:38;;;;;;;1.92;1.10;;;13.50;95.30;;;;;;5008403;28;20688;-75
2022/08/13 08:45:18;;;;;;;4.68;1.10;;;13.40;95.30;;;;;;5010669;28;20114;-74
2022/08/13 08:47:48;;;;;;;8.85;1.42;;;13.30;95.30;;;;;;5011603;28;20050;-75
2022/08/13 08:50:17;;;;;;;2.80;1.02;;;13.20;95.70;;;;;;5009806;28;20082;-74
2022/08/13 08:55:35;;;;;;;1.60;0.93;;;12.90;95.80;;;;;;4996437;28;20155;-74
2022/08/13 08:58:07;;;;;;;2.55;1.10;;;12.90;96.20;;;;;;4997374;28;20048;-76
2022/08/13 09:00:36;;;;;;;2.40;1.23;;;12.80;96.30;;;;;;5004364;28;20133;-75
2022/08/13 09:03:05;;;;;;;2.58;1.52;;;12.70;96.40;;;;;;5003105;28;20142;-74
2022/08/13 09:05:32;;;;;;;3.28;1.58;;;12.70;96.90;;;;;;5012778;28;20111;-74
2022/08/13 09:08:03;;;;;;;5.10;2.08;;;12.50;97.30;;;;;;4995127;28;20113;-77
2022/08/13 09:10:35;;;;;;;3.20;2.13;;;12.50;97.70;;;;;;5018344;28;20032;-77
2022/08/13 09:13:04;;;;;;;5.38;3.45;;;12.40;98.40;;;;;;5024161;28;20057;-75
2022/08/13 09:15:34;;;;;;;5.47;3.40;;;12.40;97.90;;;;;;5010683;28;20037;-76
2022/08/13 09:18:03;;;;;;;11.73;5.38;;;12.30;98.20;;;;;;5009750;28;20037;-75
2022/08/13 09:20:33;;;;;;;7.63;4.60;;;12.20;98.20;;;;;;5008885;28;20811;-75
2022/08/13 09:23:07;;;;;;;6.68;3.08;;;12.10;98.30;;;;;;5009890;28;20092;-76
2022/08/13 09:25:41;;;;;;;3.63;2.38;;;12.00;98.20;;;;;;5013535;28;20032;-74
2022/08/13 09:28:09;;;;;;;5.75;3.03;;;12.00;98.40;;;;;;5010099;28;20118;-77
2022/08/13 09:30:37;;;;;;;6.65;3.22;;;12.00;98.00;;;;;;5009340;28;20548;-74
2022/08/13 09:33:05;;;;;;;5.63;3.08;;;12.10;97.80;;;;;;4996595;28;20034;-76
2022/08/13 09:35:34;;;;;;;6.25;2.67;;;12.10;97.70;;;;;;5016133;28;20030;-76
2022/08/13 09:38:02;;;;;;;5.95;2.47;;;12.10;98.00;;;;;;4990424;28;20552;-76
2022/08/13 09:40:32;;;;;;;7.40;3.10;;;12.10;97.80;;;;;;5000088;28;20041;-74
2022/08/13 09:43:31;;;;;;;3.92;1.67;;;12.20;97.50;;;;;;5009437;28;20450;-74
2022/08/13 09:45:59;;;;;;;3.97;1.85;;;12.20;97.40;;;;;;5009300;28;20112;-77
2022/08/13 09:48:28;;;;;;;3.03;1.98;;;12.30;97.40;;;;;;5010060;28;20432;-74
2022/08/13 09:50:56;;;;;;;2.50;1.33;;;12.30;97.20;;;;;;4997629;28;20105;-74
2022/08/13 09:53:26;;;;;;;2.03;1.25;;;12.30;96.90;;;;;;5002632;28;20037;-75
2022/08/13 09:55:55;;;;;;;1.80;1.13;;;12.30;96.90;;;;;;5008015;28;20511;-75
2022/08/13 09:58:23;;;;;;;1.67;1.00;;;12.30;96.90;;;;;;4989975;28;20030;-75
2022/08/13 10:00:52;;;;;;;2.25;0.80;;;12.30;96.80;;;;;;5010082;28;20591;-74
2022/08/13 10:03:19;;;;;;;2.30;1.20;;;12.30;96.90;;;;;;4997245;28;20102;-74
2022/08/13 10:05:47;;;;;;;2.15;0.80;;;12.20;96.80;;;;;;5014604;28;20049;-74
2022/08/13 10:08:17;;;;;;;2.38;1.10;;;12.20;96.80;;;;;;5013470;28;20026;-73
2022/08/13 10:10:48;;;;;;;3.97;1.80;;;12.30;96.90;;;;;;5016165;28;20586;-75
2022/08/13 10:13:15;;;;;;;4.85;2.22;;;12.20;97.10;;;;;;5008688;28;20044;-76
2022/08/13 10:15:43;;;;;;;6.35;3.28;;;12.20;97.00;;;;;;5016085;28;20042;-74
2022/08/13 10:18:10;;;;;;;3.10;1.70;;;12.20;97.20;;;;;;5010279;28;20060;-75
2022/08/13 10:20:40;;;;;;;4.65;1.70;;;12.20;97.00;;;;;;5008361;28;20041;-75
2022/08/13 10:23:10;;;;;;;2.45;1.52;;;12.20;97.20;;;;;;5009003;28;20040;-72
2022/08/13 10:25:38;;;;;;;3.15;1.50;;;12.10;97.50;;;;;;5013629;28;20073;-75
2022/08/13 10:28:20;;;;;;;1.98;1.70;;;12.10;97.60;;;;;;5009993;28;20133;-75
2022/08/13 10:30:47;;;;;;;4.38;1.25;;;12.10;97.70;;;;;;5009502;28;20084;-74
2022/08/13 10:33:16;;;;;;;1.60;1.13;;;12.00;97.50;;;;;;5020772;28;20022;-76
2022/08/13 10:35:46;;;;;;;3.63;1.83;;;11.90;98.00;;;;;;5023455;28;20053;-75
2022/08/13 10:38:17;;;;;;;9.38;5.72;;;11.90;98.40;;;;;;4993762;28;20053;-75
2022/08/13 10:40:45;;;;;;;6.18;3.85;;;11.70;98.60;;;;;;5012516;28;20033;-77
2022/08/13 10:43:12;;;;;;;7.57;4.65;;;11.60;99.10;;;;;;5010235;28;20033;-78
2022/08/13 10:45:42;;;;;;;9.20;4.25;;;11.60;99.70;;;;;;5003719;28;20022;-76
2022/08/13 10:48:13;;;;;;;6.53;4.13;;;11.50;99.90;;;;;;5022084;28;20480;-76
2022/08/13 10:50:42;;;;;;;8.13;5.07;;;11.30;99.90;;;;;;5018430;28;20107;-75
2022/08/13 10:53:55;;;;;;;8.80;5.47;;;11.20;99.90;;;;;;5026469;28;20026;-75
2022/08/13 10:55:57;;;;;;;7.88;5.15;;;11.10;99.90;;;;;;5009325;28;20045;-75
2022/08/13 10:58:25;;;;;;;9.80;5.40;;;11.00;99.90;;;;;;5013145;28;20049;-75
2022/08/13 11:00:52;;;;;;;7.53;5.18;;;10.90;99.90;;;;;;5014656;28;20025;-75
2022/08/13 11:03:19;;;;;;;7.20;4.25;;;10.90;99.90;;;;;;5017856;28;20720;-75
2022/08/13 11:05:48;;;;;;;4.55;3.97;;;10.90;99.90;;;;;;5023721;28;20061;-76
2022/08/13 11:08:16;;;;;;;7.03;4.10;;;10.80;99.90;;;;;;5008529;28;20345;-75
2022/08/13 11:10:45;;;;;;;6.32;3.53;;;10.80;99.90;;;;;;5008760;28;20038;-76
2022/08/13 11:13:12;;;;;;;10.38;4.53;;;10.70;99.90;;;;;;4999359;28;20034;-76
2022/08/13 11:15:40;;;;;;;4.80;3.50;;;10.70;99.90;;;;;;5016421;28;20090;-75
2022/08/13 11:18:08;;;;;;;6.50;4.05;;;10.60;99.90;;;;;;5012870;28;20030;-75
2022/08/13 11:21:02;;;;;;;8.45;4.25;;;10.50;99.90;;;;;;4995570;28;20461;-75
2022/08/13 11:23:26;;;;;;;7.25;4.10;;;10.40;99.90;;;;;;4992589;28;20092;-75
2022/08/13 11:25:53;;;;;;;5.75;4.03;;;10.40;99.90;;;;;;5017259;28;20032;-76
2022/08/13 11:28:21;;;;;;;6.57;4.13;;;10.30;99.90;;;;;;5009644;28;20044;-74
2022/08/13 11:30:49;;;;;;;7.50;3.65;;;10.20;99.90;;;;;;4997573;28;20057;-75
2022/08/13 11:33:17;;;;;;;5.68;4.25;;;10.20;99.90;;;;;;4999514;28;20112;-76
2022/08/13 11:35:45;;;;;;;4.55;4.00;;;10.10;99.90;;;;;;5011055;28;20064;-76
2022/08/13 11:38:15;;;;;;;8.10;5.13;;;10.10;99.90;;;;;;5004834;28;20079;-77
2022/08/13 11:41:08;;;;;;;11.30;5.78;;;10.00;99.90;;;;;;5009487;28;20532;-76
2022/08/13 11:43:36;;;;;;;9.60;6.43;;;10.10;99.90;;;;;;4995744;28;20848;-75
2022/08/13 11:46:03;;;;;;;6.97;5.30;;;10.10;99.90;;;;;;4999976;28;20120;-75
2022/08/13 11:48:31;;;;;;;4.53;3.28;;;10.10;99.90;;;;;;5005761;28;20068;-74
2022/08/13 11:50:58;;;;;;;5.03;2.75;;;10.10;99.90;;;;;;5001804;28;20045;-76
2022/08/13 11:53:26;;;;;;;7.90;3.80;;;10.10;99.90;;;;;;4999325;28;20049;-75
2022/08/13 11:55:54;;;;;;;5.07;3.60;;;10.20;99.90;;;;;;5015408;28;20085;-74
2022/08/13 11:58:21;;;;;;;14.00;8.68;;;10.20;99.90;;;;;;4998480;28;20033;-74
2022/08/13 12:00:49;;;;;;;6.50;4.03;;;10.20;99.90;;;;;;4998445;28;20030;-75
2022/08/13 12:03:16;;;;;;;8.07;4.65;;;10.20;99.90;;;;;;4998932;28;20021;-75
2022/08/13 12:05:44;;;;;;;8.60;5.72;;;10.20;99.90;;;;;;5001634;28;20456;-75
2022/08/13 12:08:19;;;;;;;13.73;8.40;;;10.20;99.90;;;;;;4998709;28;20030;-75
2022/08/13 12:10:47;;;;;;;12.25;7.35;;;10.20;99.90;;;;;;4998663;28;20033;-75
2022/08/13 12:13:15;;;;;;;11.10;7.57;;;10.20;99.90;;;;;;4997601;28;20022;-74
2022/08/13 12:15:43;;;;;;;11.25;6.60;;;10.20;99.90;;;;;;4999112;28;20242;-74
2022/08/13 12:18:14;;;;;;;10.82;6.15;;;10.10;99.90;;;;;;4999656;28;20045;-74
2022/08/13 12:20:41;;;;;;;8.23;5.43;;;10.10;99.90;;;;;;5005131;28;20052;-76
2022/08/13 12:23:09;;;;;;;7.10;5.25;;;10.00;99.90;;;;;;4998088;28;20033;-75
2022/08/13 12:25:36;;;;;;;8.10;5.50;;;10.00;99.90;;;;;;5013428;28;20080;-74
2022/08/13 12:28:25;;;;;;;8.77;5.47;;;9.90;99.90;;;;;;5013454;28;20033;-79
2022/08/13 12:30:59;;;;;;;8.15;5.50;;;9.90;99.90;;;;;;5018239;28;20571;-74
2022/08/13 12:33:29;;;;;;;6.57;5.60;;;9.80;99.90;;;;;;5017611;28;20216;-74
2022/08/13 12:35:59;;;;;;;8.38;4.82;;;9.70;99.90;;;;;;5015566;28;20739;-74
2022/08/13 12:38:27;;;;;;;10.13;5.30;;;9.60;99.90;;;;;;5006816;28;20029;-75
2022/08/13 12:40:54;;;;;;;9.23;5.30;;;9.60;99.90;;;;;;5006027;28;20030;-75
2022/08/13 12:43:22;;;;;;;6.65;4.63;;;9.60;99.90;;;;;;5016418;28;20037;-74
2022/08/13 12:45:49;;;;;;;9.05;6.13;;;9.60;99.90;;;;;;5016445;28;20050;-73
2022/08/13 12:48:18;;;;;;;5.80;4.60;;;9.50;99.90;;;;;;5015530;28;20025;-74
2022/08/13 12:50:47;;;;;;;8.00;5.82;;;9.50;99.90;;;;;;5011645;28;20038;-75
2022/08/13 12:53:16;;;;;;;11.32;5.20;;;9.50;99.90;;;;;;5007424;28;20655;-74
2022/08/13 12:55:45;;;;;;;8.10;5.75;;;9.50;99.90;;;;;;5007633;28;20069;-75
2022/08/13 12:58:16;;;;;;;8.98;5.65;;;9.50;99.90;;;;;;5016330;28;20089;-74
2022/08/13 13:00:45;;;;;;;9.55;4.93;;;9.60;99.90;;;;;;5008269;28;20091;-74
2022/08/13 13:03:14;;;;;;;9.35;5.95;;;9.60;99.90;;;;;;5029164;28;20034;-74
2022/08/13 13:05:44;;;;;;;9.77;6.28;;;9.60;99.90;;;;;;5020215;28;20037;-75
2022/08/13 13:08:26;;;;;;;9.68;5.38;;;9.60;99.90;;;;;;5012401;28;20120;-74
2022/08/13 13:10:55;;;;;;;6.50;4.53;;;9.70;99.90;;;;;;5008545;28;20365;-76
2022/08/13 13:13:25;;;;;;;7.97;4.38;;;9.80;99.90;;;;;;5013350;28;20026;-74
2022/08/13 13:15:54;;;;;;;6.53;3.97;;;9.80;99.90;;;;;;5002919;28;20432;-74
2022/08/13 13:18:25;;;;;;;5.63;3.47;;;9.80;99.90;;;;;;5009188;28;20101;-75
2022/08/13 13:20:53;;;;;;;4.13;3.13;;;9.80;99.90;;;;;;5012256;28;20061;-74
2022/08/13 13:23:24;;;;;;;5.57;3.63;;;9.80;99.90;;;;;;5022038;28;20039;-74